sensor_id;sensor_type;location;lat;lon;timestamp;P1;durP1;ratioP1;P2;durP2;ratioP2
35969;SDS011;22448;51.298;6.430;2022-08-20T00:00:30;26.33;;;15.98;;
35969;SDS011;22448;51.298;6.430;2022-08-20T00:03:01;27.45;;;17.23;;
35969;SDS011;22448;51.298;6.430;2022-08-20T00:05:33;27.40;;;16.92;;
35969;SDS011;22448;51.298;6.430;2022-08-20T00:08:02;27.58;;;16.67;;
35969;SDS011;22448;51.298;6.430;2022-08-20T00:10:32;30.02;;;17.65;;
35969;SDS011;22448;51.298;6.430;2022-08-20T00:13:00;26.15;;;16.25;;
35969;SDS011;22448;51.298;6.430;2022-08-20T00:15:31;27.70;;;17.52;;
35969;SDS011;22448;51.298;6.430;2022-08-20T00:18:00;32.45;;;17.90;;
35969;SDS011;22448;51.298;6.430;2022-08-20T00:20:29;23.08;;;17.63;;
35969;SDS011;22448;51.298;6.430;2022-08-20T00:23:01;27.42;;;18.05;;
35969;SDS011;22448;51.298;6.430;2022-08-20T00:25:35;25.10;;;18.17;;
35969;SDS011;22448;51.298;6.430;2022-08-20T00:28:03;33.33;;;18.80;;
35969;SDS011;22448;51.298;6.430;2022-08-20T00:30:32;31.75;;;19.67;;
35969;SDS011;22448;51.298;6.430;2022-08-20T00:33:03;31.02;;;19.88;;
35969;SDS011;22448;51.298;6.430;2022-08-20T00:35:37;30.67;;;19.48;;
35969;SDS011;22448;51.298;6.430;2022-08-20T00:38:06;34.90;;;20.73;;
35969;SDS011;22448;51.298;6.430;2022-08-20T00:40:35;36.85;;;20.95;;
35969;SDS011;22448;51.298;6.430;2022-08-20T00:43:06;37.78;;;22.50;;
35969;SDS011;22448;51.298;6.430;2022-08-20T00:45:49;37.63;;;21.63;;
35969;SDS011;22448;51.298;6.430;2022-08-20T00:48:21;46.50;;;22.92;;
35969;SDS011;22448;51.298;6.430;2022-08-20T00:50:50;40.70;;;23.17;;
35969;SDS011;22448;51.298;6.430;2022-08-20T00:53:22;42.15;;;21.85;;
35969;SDS011;22448;51.298;6.430;2022-08-20T00:55:51;39.65;;;22.52;;
35969;SDS011;22448;51.298;6.430;2022-08-20T00:58:18;38.20;;;21.67;;
35969;SDS011;22448;51.298;6.430;2022-08-20T01:00:46;37.00;;;22.02;;
35969;SDS011;22448;51.298;6.430;2022-08-20T01:03:15;47.00;;;22.98;;
35969;SDS011;22448;51.298;6.430;2022-08-20T01:05:45;39.80;;;23.67;;
35969;SDS011;22448;51.298;6.430;2022-08-20T01:08:16;38.05;;;23.02;;
35969;SDS011;22448;51.298;6.430;2022-08-20T01:10:48;43.38;;;24.15;;
35969;SDS011;22448;51.298;6.430;2022-08-20T01:13:20;35.08;;;21.48;;
35969;SDS011;22448;51.298;6.430;2022-08-20T01:15:50;42.85;;;23.33;;
35969;SDS011;22448;51.298;6.430;2022-08-20T01:18:21;40.60;;;22.50;;
35969;SDS011;22448;51.298;6.430;2022-08-20T01:20:53;37.22;;;22.13;;
35969;SDS011;22448;51.298;6.430;2022-08-20T01:26:18;40.88;;;22.00;;
35969;SDS011;22448;51.298;6.430;2022-08-20T01:28:55;44.47;;;22.95;;
35969;SDS011;22448;51.298;6.430;2022-08-20T01:31:25;34.92;;;22.90;;
35969;SDS011;22448;51.298;6.430;2022-08-20T01:33:56;38.25;;;23.40;;
35969;SDS011;22448;51.298;6.430;2022-08-20T01:36:47;41.10;;;24.02;;
35969;SDS011;22448;51.298;6.430;2022-08-20T01:39:15;35.30;;;24.20;;
35969;SDS011;22448;51.298;6.430;2022-08-20T01:44:25;40.20;;;25.60;;
35969;SDS011;22448;51.298;6.430;2022-08-20T01:46:56;42.83;;;26.98;;
35969;SDS011;22448;51.298;6.430;2022-08-20T01:49:33;42.05;;;27.15;;
35969;SDS011;22448;51.298;6.430;2022-08-20T01:52:04;43.65;;;28.02;;
35969;SDS011;22448;51.298;6.430;2022-08-20T01:54:33;51.75;;;28.63;;
35969;SDS011;22448;51.298;6.430;2022-08-20T01:57:02;47.38;;;27.27;;
35969;SDS011;22448;51.298;6.430;2022-08-20T01:59:32;39.13;;;25.83;;
35969;SDS011;22448;51.298;6.430;2022-08-20T02:01:59;41.08;;;26.80;;
35969;SDS011;22448;51.298;6.430;2022-08-20T02:04:27;45.47;;;26.77;;
35969;SDS011;22448;51.298;6.430;2022-08-20T02:06:55;40.03;;;26.13;;
35969;SDS011;22448;51.298;6.430;2022-08-20T02:09:30;41.90;;;26.20;;
35969;SDS011;22448;51.298;6.430;2022-08-20T02:12:00;40.42;;;26.30;;
35969;SDS011;22448;51.298;6.430;2022-08-20T02:14:28;43.63;;;25.70;;
35969;SDS011;22448;51.298;6.430;2022-08-20T02:16:56;47.20;;;27.85;;
35969;SDS011;22448;51.298;6.430;2022-08-20T02:19:34;44.60;;;27.85;;
35969;SDS011;22448;51.298;6.430;2022-08-20T02:22:18;49.88;;;28.77;;
35969;SDS011;22448;51.298;6.430;2022-08-20T02:24:50;48.30;;;29.02;;
35969;SDS011;22448;51.298;6.430;2022-08-20T02:27:18;52.70;;;31.83;;
35969;SDS011;22448;51.298;6.430;2022-08-20T02:29:49;52.80;;;31.38;;
35969;SDS011;22448;51.298;6.430;2022-08-20T02:32:16;55.30;;;31.33;;
35969;SDS011;22448;51.298;6.430;2022-08-20T02:34:59;56.97;;;31.05;;
35969;SDS011;22448;51.298;6.430;2022-08-20T02:37:29;59.60;;;31.13;;
35969;SDS011;22448;51.298;6.430;2022-08-20T02:39:56;57.58;;;32.05;;
35969;SDS011;22448;51.298;6.430;2022-08-20T02:42:24;59.75;;;34.03;;
35969;SDS011;22448;51.298;6.430;2022-08-20T02:44:51;68.75;;;35.28;;
35969;SDS011;22448;51.298;6.430;2022-08-20T02:47:19;62.58;;;34.47;;
35969;SDS011;22448;51.298;6.430;2022-08-20T02:49:46;61.38;;;33.63;;
35969;SDS011;22448;51.298;6.430;2022-08-20T02:52:13;57.42;;;32.17;;
35969;SDS011;22448;51.298;6.430;2022-08-20T02:54:40;58.33;;;32.53;;
35969;SDS011;22448;51.298;6.430;2022-08-20T02:57:12;51.75;;;30.83;;
35969;SDS011;22448;51.298;6.430;2022-08-20T02:59:40;53.65;;;30.48;;
35969;SDS011;22448;51.298;6.430;2022-08-20T03:02:08;60.92;;;33.50;;
35969;SDS011;22448;51.298;6.430;2022-08-20T03:04:35;55.40;;;32.47;;
35969;SDS011;22448;51.298;6.430;2022-08-20T03:07:03;56.58;;;32.95;;
35969;SDS011;22448;51.298;6.430;2022-08-20T03:09:30;64.15;;;33.95;;
35969;SDS011;22448;51.298;6.430;2022-08-20T03:11:58;72.07;;;38.10;;
35969;SDS011;22448;51.298;6.430;2022-08-20T03:14:25;73.55;;;38.85;;
35969;SDS011;22448;51.298;6.430;2022-08-20T03:16:52;69.18;;;36.75;;
35969;SDS011;22448;51.298;6.430;2022-08-20T03:19:19;77.03;;;38.65;;
35969;SDS011;22448;51.298;6.430;2022-08-20T03:21:48;61.30;;;35.85;;
35969;SDS011;22448;51.298;6.430;2022-08-20T03:24:15;68.85;;;36.53;;
35969;SDS011;22448;51.298;6.430;2022-08-20T03:26:42;68.97;;;36.65;;
35969;SDS011;22448;51.298;6.430;2022-08-20T03:29:09;70.32;;;36.08;;
35969;SDS011;22448;51.298;6.430;2022-08-20T03:31:37;66.78;;;35.65;;
35969;SDS011;22448;51.298;6.430;2022-08-20T03:34:04;64.22;;;37.08;;
35969;SDS011;22448;51.298;6.430;2022-08-20T03:36:31;61.45;;;35.45;;
35969;SDS011;22448;51.298;6.430;2022-08-20T03:39:01;63.75;;;36.17;;
35969;SDS011;22448;51.298;6.430;2022-08-20T03:41:32;67.53;;;35.92;;
35969;SDS011;22448;51.298;6.430;2022-08-20T03:43:59;61.83;;;34.35;;
35969;SDS011;22448;51.298;6.430;2022-08-20T03:46:26;68.03;;;36.38;;
35969;SDS011;22448;51.298;6.430;2022-08-20T03:48:53;74.95;;;38.22;;
35969;SDS011;22448;51.298;6.430;2022-08-20T03:51:27;67.15;;;36.60;;
35969;SDS011;22448;51.298;6.430;2022-08-20T03:53:55;74.53;;;36.67;;
35969;SDS011;22448;51.298;6.430;2022-08-20T03:56:23;73.63;;;37.63;;
35969;SDS011;22448;51.298;6.430;2022-08-20T03:58:51;67.05;;;35.88;;
35969;SDS011;22448;51.298;6.430;2022-08-20T04:01:18;67.63;;;36.25;;
35969;SDS011;22448;51.298;6.430;2022-08-20T04:04:05;62.75;;;35.15;;
35969;SDS011;22448;51.298;6.430;2022-08-20T04:06:38;64.30;;;33.30;;
35969;SDS011;22448;51.298;6.430;2022-08-20T04:09:08;65.15;;;33.70;;
35969;SDS011;22448;51.298;6.430;2022-08-20T04:11:38;62.22;;;33.50;;
35969;SDS011;22448;51.298;6.430;2022-08-20T04:14:06;66.45;;;33.35;;
35969;SDS011;22448;51.298;6.430;2022-08-20T04:16:37;60.50;;;33.78;;
35969;SDS011;22448;51.298;6.430;2022-08-20T04:19:06;59.35;;;32.95;;
35969;SDS011;22448;51.298;6.430;2022-08-20T04:21:34;59.05;;;32.97;;
35969;SDS011;22448;51.298;6.430;2022-08-20T04:24:03;64.47;;;34.38;;
35969;SDS011;22448;51.298;6.430;2022-08-20T04:26:31;65.38;;;34.58;;
35969;SDS011;22448;51.298;6.430;2022-08-20T04:29:00;62.00;;;34.35;;
35969;SDS011;22448;51.298;6.430;2022-08-20T04:31:27;62.90;;;32.70;;
35969;SDS011;22448;51.298;6.430;2022-08-20T04:36:28;66.03;;;33.53;;
35969;SDS011;22448;51.298;6.430;2022-08-20T04:38:56;60.95;;;32.33;;
35969;SDS011;22448;51.298;6.430;2022-08-20T04:41:23;60.75;;;32.10;;
35969;SDS011;22448;51.298;6.430;2022-08-20T04:43:51;60.25;;;32.55;;
35969;SDS011;22448;51.298;6.430;2022-08-20T04:46:21;58.80;;;33.30;;
35969;SDS011;22448;51.298;6.430;2022-08-20T04:48:50;63.05;;;32.28;;
35969;SDS011;22448;51.298;6.430;2022-08-20T04:51:18;55.45;;;31.83;;
35969;SDS011;22448;51.298;6.430;2022-08-20T04:53:49;51.47;;;30.20;;
35969;SDS011;22448;51.298;6.430;2022-08-20T04:56:20;58.47;;;33.47;;
35969;SDS011;22448;51.298;6.430;2022-08-20T04:58:49;53.17;;;32.50;;
35969;SDS011;22448;51.298;6.430;2022-08-20T05:01:18;57.00;;;34.53;;
35969;SDS011;22448;51.298;6.430;2022-08-20T05:03:45;57.42;;;33.40;;
35969;SDS011;22448;51.298;6.430;2022-08-20T05:06:15;55.15;;;32.78;;
35969;SDS011;22448;51.298;6.430;2022-08-20T05:08:43;64.18;;;35.83;;
35969;SDS011;22448;51.298;6.430;2022-08-20T05:11:11;69.93;;;38.25;;
35969;SDS011;22448;51.298;6.430;2022-08-20T05:13:59;78.70;;;42.08;;
35969;SDS011;22448;51.298;6.430;2022-08-20T05:16:26;75.15;;;42.17;;
35969;SDS011;22448;51.298;6.430;2022-08-20T05:18:54;78.90;;;43.90;;
35969;SDS011;22448;51.298;6.430;2022-08-20T05:21:21;87.88;;;46.28;;
35969;SDS011;22448;51.298;6.430;2022-08-20T05:23:48;92.50;;;46.85;;
35969;SDS011;22448;51.298;6.430;2022-08-20T05:26:15;89.43;;;48.75;;
35969;SDS011;22448;51.298;6.430;2022-08-20T05:28:45;98.75;;;49.25;;
35969;SDS011;22448;51.298;6.430;2022-08-20T05:31:28;92.85;;;50.45;;
35969;SDS011;22448;51.298;6.430;2022-08-20T05:34:02;95.97;;;51.10;;
35969;SDS011;22448;51.298;6.430;2022-08-20T05:36:44;103.95;;;50.15;;
35969;SDS011;22448;51.298;6.430;2022-08-20T05:39:16;97.20;;;52.30;;
35969;SDS011;22448;51.298;6.430;2022-08-20T05:41:43;98.90;;;53.25;;
35969;SDS011;22448;51.298;6.430;2022-08-20T05:44:10;106.57;;;56.05;;
35969;SDS011;22448;51.298;6.430;2022-08-20T05:46:41;109.82;;;59.08;;
35969;SDS011;22448;51.298;6.430;2022-08-20T05:49:12;102.10;;;58.17;;
35969;SDS011;22448;51.298;6.430;2022-08-20T05:51:41;117.45;;;63.17;;
35969;SDS011;22448;51.298;6.430;2022-08-20T05:54:09;116.80;;;64.72;;
35969;SDS011;22448;51.298;6.430;2022-08-20T05:56:36;117.63;;;60.95;;
35969;SDS011;22448;51.298;6.430;2022-08-20T05:59:05;112.30;;;61.70;;
35969;SDS011;22448;51.298;6.430;2022-08-20T06:01:34;121.20;;;60.42;;
35969;SDS011;22448;51.298;6.430;2022-08-20T06:04:03;116.47;;;60.13;;
35969;SDS011;22448;51.298;6.430;2022-08-20T06:06:50;129.52;;;60.53;;
35969;SDS011;22448;51.298;6.430;2022-08-20T06:09:19;120.65;;;60.13;;
35969;SDS011;22448;51.298;6.430;2022-08-20T06:11:58;133.55;;;64.80;;
35969;SDS011;22448;51.298;6.430;2022-08-20T06:14:27;130.77;;;63.28;;
35969;SDS011;22448;51.298;6.430;2022-08-20T06:17:00;115.10;;;60.90;;
35969;SDS011;22448;51.298;6.430;2022-08-20T06:19:32;122.63;;;59.97;;
35969;SDS011;22448;51.298;6.430;2022-08-20T06:22:02;123.57;;;59.67;;
35969;SDS011;22448;51.298;6.430;2022-08-20T06:24:44;132.52;;;66.18;;
35969;SDS011;22448;51.298;6.430;2022-08-20T06:27:12;111.93;;;57.03;;
35969;SDS011;22448;51.298;6.430;2022-08-20T06:29:41;96.53;;;57.13;;
35969;SDS011;22448;51.298;6.430;2022-08-20T06:32:09;91.40;;;55.30;;
35969;SDS011;22448;51.298;6.430;2022-08-20T06:34:36;82.13;;;50.58;;
35969;SDS011;22448;51.298;6.430;2022-08-20T06:37:20;67.85;;;41.13;;
35969;SDS011;22448;51.298;6.430;2022-08-20T06:39:58;70.90;;;43.65;;
35969;SDS011;22448;51.298;6.430;2022-08-20T06:42:28;64.43;;;43.33;;
35969;SDS011;22448;51.298;6.430;2022-08-20T06:44:55;62.30;;;41.78;;
35969;SDS011;22448;51.298;6.430;2022-08-20T06:47:24;55.08;;;36.80;;
35969;SDS011;22448;51.298;6.430;2022-08-20T06:49:52;52.38;;;37.00;;
35969;SDS011;22448;51.298;6.430;2022-08-20T06:52:19;54.67;;;33.50;;
35969;SDS011;22448;51.298;6.430;2022-08-20T06:55:06;46.20;;;31.80;;
35969;SDS011;22448;51.298;6.430;2022-08-20T06:57:36;46.70;;;31.92;;
35969;SDS011;22448;51.298;6.430;2022-08-20T07:00:08;52.67;;;31.15;;
35969;SDS011;22448;51.298;6.430;2022-08-20T07:02:37;49.83;;;32.72;;
35969;SDS011;22448;51.298;6.430;2022-08-20T07:05:04;53.28;;;31.85;;
35969;SDS011;22448;51.298;6.430;2022-08-20T07:07:32;46.63;;;32.20;;
35969;SDS011;22448;51.298;6.430;2022-08-20T07:10:04;59.88;;;35.13;;
35969;SDS011;22448;51.298;6.430;2022-08-20T07:12:36;60.67;;;35.25;;
35969;SDS011;22448;51.298;6.430;2022-08-20T07:15:04;64.13;;;36.08;;
35969;SDS011;22448;51.298;6.430;2022-08-20T07:17:34;62.75;;;36.95;;
35969;SDS011;22448;51.298;6.430;2022-08-20T07:20:08;62.17;;;37.33;;
35969;SDS011;22448;51.298;6.430;2022-08-20T07:22:38;69.68;;;37.88;;
35969;SDS011;22448;51.298;6.430;2022-08-20T07:25:07;73.43;;;39.80;;
35969;SDS011;22448;51.298;6.430;2022-08-20T07:27:38;67.25;;;38.55;;
35969;SDS011;22448;51.298;6.430;2022-08-20T07:30:07;69.32;;;38.83;;
35969;SDS011;22448;51.298;6.430;2022-08-20T07:32:56;69.72;;;38.33;;
35969;SDS011;22448;51.298;6.430;2022-08-20T07:35:25;66.88;;;36.40;;
35969;SDS011;22448;51.298;6.430;2022-08-20T07:37:52;70.70;;;35.85;;
35969;SDS011;22448;51.298;6.430;2022-08-20T07:40:21;70.18;;;34.95;;
35969;SDS011;22448;51.298;6.430;2022-08-20T07:42:53;66.20;;;34.92;;
35969;SDS011;22448;51.298;6.430;2022-08-20T07:45:21;69.20;;;35.55;;
35969;SDS011;22448;51.298;6.430;2022-08-20T07:47:48;60.08;;;32.60;;
35969;SDS011;22448;51.298;6.430;2022-08-20T07:50:20;73.50;;;34.17;;
35969;SDS011;22448;51.298;6.430;2022-08-20T07:52:51;66.28;;;34.28;;
35969;SDS011;22448;51.298;6.430;2022-08-20T07:55:19;68.18;;;33.10;;
35969;SDS011;22448;51.298;6.430;2022-08-20T07:57:47;64.70;;;31.75;;
35969;SDS011;22448;51.298;6.430;2022-08-20T08:00:17;64.03;;;32.15;;
35969;SDS011;22448;51.298;6.430;2022-08-20T08:02:45;66.45;;;30.95;;
35969;SDS011;22448;51.298;6.430;2022-08-20T08:05:13;65.72;;;31.50;;
35969;SDS011;22448;51.298;6.430;2022-08-20T08:07:41;56.17;;;30.63;;
35969;SDS011;22448;51.298;6.430;2022-08-20T08:10:09;56.38;;;28.50;;
35969;SDS011;22448;51.298;6.430;2022-08-20T08:12:41;68.65;;;30.70;;
35969;SDS011;22448;51.298;6.430;2022-08-20T08:15:14;61.10;;;30.38;;
35969;SDS011;22448;51.298;6.430;2022-08-20T08:17:43;70.15;;;30.83;;
35969;SDS011;22448;51.298;6.430;2022-08-20T08:20:12;63.25;;;30.55;;
35969;SDS011;22448;51.298;6.430;2022-08-20T08:22:41;58.45;;;31.17;;
35969;SDS011;22448;51.298;6.430;2022-08-20T08:25:10;60.25;;;29.80;;
35969;SDS011;22448;51.298;6.430;2022-08-20T08:27:38;62.60;;;30.60;;
35969;SDS011;22448;51.298;6.430;2022-08-20T08:30:06;62.42;;;31.75;;
35969;SDS011;22448;51.298;6.430;2022-08-20T08:32:35;67.50;;;29.83;;
35969;SDS011;22448;51.298;6.430;2022-08-20T08:35:04;71.22;;;28.42;;
35969;SDS011;22448;51.298;6.430;2022-08-20T08:37:34;68.20;;;29.33;;
35969;SDS011;22448;51.298;6.430;2022-08-20T08:40:03;66.65;;;29.15;;
35969;SDS011;22448;51.298;6.430;2022-08-20T08:42:37;75.18;;;28.08;;
35969;SDS011;22448;51.298;6.430;2022-08-20T08:45:12;68.00;;;29.52;;
35969;SDS011;22448;51.298;6.430;2022-08-20T08:47:42;66.85;;;29.05;;
35969;SDS011;22448;51.298;6.430;2022-08-20T08:50:15;74.95;;;29.55;;
35969;SDS011;22448;51.298;6.430;2022-08-20T08:53:09;69.10;;;29.00;;
35969;SDS011;22448;51.298;6.430;2022-08-20T08:55:43;67.07;;;28.23;;
35969;SDS011;22448;51.298;6.430;2022-08-20T08:58:10;65.28;;;30.98;;
35969;SDS011;22448;51.298;6.430;2022-08-20T09:00:43;56.00;;;28.00;;
35969;SDS011;22448;51.298;6.430;2022-08-20T09:03:25;75.82;;;30.08;;
35969;SDS011;22448;51.298;6.430;2022-08-20T09:05:59;64.93;;;29.10;;
35969;SDS011;22448;51.298;6.430;2022-08-20T09:08:31;67.82;;;30.65;;
35969;SDS011;22448;51.298;6.430;2022-08-20T09:11:06;73.22;;;32.33;;
35969;SDS011;22448;51.298;6.430;2022-08-20T09:13:33;68.80;;;33.35;;
35969;SDS011;22448;51.298;6.430;2022-08-20T09:16:00;66.65;;;32.88;;
35969;SDS011;22448;51.298;6.430;2022-08-20T09:18:28;68.82;;;33.78;;
35969;SDS011;22448;51.298;6.430;2022-08-20T09:20:55;72.63;;;32.65;;
35969;SDS011;22448;51.298;6.430;2022-08-20T09:23:21;80.50;;;34.88;;
35969;SDS011;22448;51.298;6.430;2022-08-20T09:25:49;81.13;;;33.53;;
35969;SDS011;22448;51.298;6.430;2022-08-20T09:28:16;76.75;;;35.47;;
35969;SDS011;22448;51.298;6.430;2022-08-20T09:30:43;78.68;;;33.72;;
35969;SDS011;22448;51.298;6.430;2022-08-20T09:33:11;68.53;;;30.65;;
35969;SDS011;22448;51.298;6.430;2022-08-20T09:35:38;72.18;;;31.30;;
35969;SDS011;22448;51.298;6.430;2022-08-20T09:38:06;70.78;;;32.00;;
35969;SDS011;22448;51.298;6.430;2022-08-20T09:40:33;78.53;;;29.75;;
35969;SDS011;22448;51.298;6.430;2022-08-20T09:43:00;68.18;;;31.83;;
35969;SDS011;22448;51.298;6.430;2022-08-20T09:45:31;66.53;;;28.67;;
35969;SDS011;22448;51.298;6.430;2022-08-20T09:47:58;55.95;;;28.70;;
35969;SDS011;22448;51.298;6.430;2022-08-20T09:50:28;64.65;;;29.50;;
35969;SDS011;22448;51.298;6.430;2022-08-20T09:52:57;67.28;;;28.75;;
35969;SDS011;22448;51.298;6.430;2022-08-20T09:58:32;55.22;;;26.58;;
35969;SDS011;22448;51.298;6.430;2022-08-20T10:01:08;71.30;;;29.45;;
35969;SDS011;22448;51.298;6.430;2022-08-20T10:03:40;63.60;;;28.92;;
35969;SDS011;22448;51.298;6.430;2022-08-20T10:06:08;63.30;;;27.92;;
35969;SDS011;22448;51.298;6.430;2022-08-20T10:08:37;61.72;;;28.83;;
35969;SDS011;22448;51.298;6.430;2022-08-20T10:11:04;53.60;;;27.83;;
35969;SDS011;22448;51.298;6.430;2022-08-20T10:13:31;53.22;;;26.08;;
35969;SDS011;22448;51.298;6.430;2022-08-20T10:15:58;52.75;;;27.60;;
35969;SDS011;22448;51.298;6.430;2022-08-20T10:18:25;55.78;;;26.58;;
35969;SDS011;22448;51.298;6.430;2022-08-20T10:20:52;50.97;;;27.85;;
35969;SDS011;22448;51.298;6.430;2022-08-20T10:23:19;50.95;;;27.85;;
35969;SDS011;22448;51.298;6.430;2022-08-20T10:25:46;57.97;;;28.48;;
35969;SDS011;22448;51.298;6.430;2022-08-20T10:28:13;58.70;;;31.00;;
35969;SDS011;22448;51.298;6.430;2022-08-20T10:30:39;51.85;;;29.45;;
35969;SDS011;22448;51.298;6.430;2022-08-20T10:33:06;59.45;;;31.92;;
35969;SDS011;22448;51.298;6.430;2022-08-20T10:35:33;51.65;;;29.90;;
35969;SDS011;22448;51.298;6.430;2022-08-20T10:38:00;54.00;;;30.52;;
35969;SDS011;22448;51.298;6.430;2022-08-20T10:40:27;53.70;;;28.73;;
35969;SDS011;22448;51.298;6.430;2022-08-20T10:42:55;51.45;;;28.90;;
35969;SDS011;22448;51.298;6.430;2022-08-20T10:45:22;54.38;;;29.75;;
35969;SDS011;22448;51.298;6.430;2022-08-20T10:47:51;45.88;;;27.90;;
35969;SDS011;22448;51.298;6.430;2022-08-20T10:50:18;42.55;;;27.33;;
35969;SDS011;22448;51.298;6.430;2022-08-20T10:52:45;45.90;;;29.75;;
35969;SDS011;22448;51.298;6.430;2022-08-20T10:55:12;48.80;;;27.70;;
35969;SDS011;22448;51.298;6.430;2022-08-20T10:57:40;52.58;;;29.08;;
35969;SDS011;22448;51.298;6.430;2022-08-20T11:00:11;40.67;;;27.98;;
35969;SDS011;22448;51.298;6.430;2022-08-20T11:02:40;41.92;;;28.20;;
35969;SDS011;22448;51.298;6.430;2022-08-20T11:05:07;50.30;;;28.85;;
35969;SDS011;22448;51.298;6.430;2022-08-20T11:07:35;39.78;;;27.05;;
35969;SDS011;22448;51.298;6.430;2022-08-20T11:10:24;48.83;;;27.90;;
35969;SDS011;22448;51.298;6.430;2022-08-20T11:12:53;38.95;;;25.45;;
35969;SDS011;22448;51.298;6.430;2022-08-20T11:15:20;41.38;;;26.45;;
35969;SDS011;22448;51.298;6.430;2022-08-20T11:17:47;40.15;;;25.85;;
35969;SDS011;22448;51.298;6.430;2022-08-20T11:20:15;37.53;;;23.65;;
35969;SDS011;22448;51.298;6.430;2022-08-20T11:22:44;39.40;;;23.98;;
35969;SDS011;22448;51.298;6.430;2022-08-20T11:25:12;39.55;;;23.92;;
35969;SDS011;22448;51.298;6.430;2022-08-20T11:27:40;34.20;;;20.88;;
35969;SDS011;22448;51.298;6.430;2022-08-20T11:30:12;34.28;;;21.70;;
35969;SDS011;22448;51.298;6.430;2022-08-20T11:32:44;33.42;;;19.70;;
35969;SDS011;22448;51.298;6.430;2022-08-20T11:35:11;35.22;;;21.48;;
35969;SDS011;22448;51.298;6.430;2022-08-20T11:37:59;41.22;;;20.42;;
35969;SDS011;22448;51.298;6.430;2022-08-20T11:40:28;32.33;;;19.17;;
35969;SDS011;22448;51.298;6.430;2022-08-20T11:42:56;43.78;;;20.88;;
35969;SDS011;22448;51.298;6.430;2022-08-20T11:45:40;38.25;;;19.75;;
35969;SDS011;22448;51.298;6.430;2022-08-20T11:48:08;30.95;;;19.45;;
35969;SDS011;22448;51.298;6.430;2022-08-20T11:50:35;32.25;;;18.27;;
35969;SDS011;22448;51.298;6.430;2022-08-20T11:53:02;36.20;;;19.02;;
35969;SDS011;22448;51.298;6.430;2022-08-20T11:55:30;28.02;;;17.30;;
35969;SDS011;22448;51.298;6.430;2022-08-20T11:57:58;34.83;;;17.65;;
35969;SDS011;22448;51.298;6.430;2022-08-20T12:00:27;32.45;;;16.80;;
35969;SDS011;22448;51.298;6.430;2022-08-20T12:02:59;39.00;;;18.50;;
35969;SDS011;22448;51.298;6.430;2022-08-20T12:05:27;27.88;;;16.42;;
35969;SDS011;22448;51.298;6.430;2022-08-20T12:07:56;39.78;;;17.17;;
35969;SDS011;22448;51.298;6.430;2022-08-20T12:10:25;33.70;;;16.88;;
35969;SDS011;22448;51.298;6.430;2022-08-20T12:12:53;33.10;;;15.30;;
35969;SDS011;22448;51.298;6.430;2022-08-20T12:15:21;31.02;;;13.88;;
35969;SDS011;22448;51.298;6.430;2022-08-20T12:17:49;34.08;;;13.00;;
35969;SDS011;22448;51.298;6.430;2022-08-20T12:20:16;29.58;;;14.30;;
35969;SDS011;22448;51.298;6.430;2022-08-20T12:22:43;27.60;;;13.35;;
35969;SDS011;22448;51.298;6.430;2022-08-20T12:25:11;27.48;;;13.48;;
35969;SDS011;22448;51.298;6.430;2022-08-20T12:27:39;34.05;;;11.75;;
35969;SDS011;22448;51.298;6.430;2022-08-20T12:30:08;25.55;;;12.30;;
35969;SDS011;22448;51.298;6.430;2022-08-20T12:32:37;28.58;;;13.00;;
35969;SDS011;22448;51.298;6.430;2022-08-20T12:35:05;32.13;;;11.75;;
35969;SDS011;22448;51.298;6.430;2022-08-20T12:37:33;25.80;;;11.90;;
35969;SDS011;22448;51.298;6.430;2022-08-20T12:40:00;26.38;;;10.95;;
35969;SDS011;22448;51.298;6.430;2022-08-20T12:42:31;27.85;;;11.52;;
35969;SDS011;22448;51.298;6.430;2022-08-20T12:44:58;29.13;;;12.30;;
35969;SDS011;22448;51.298;6.430;2022-08-20T12:47:27;26.27;;;10.45;;
35969;SDS011;22448;51.298;6.430;2022-08-20T12:50:00;18.80;;;9.63;;
35969;SDS011;22448;51.298;6.430;2022-08-20T12:52:30;24.20;;;10.18;;
35969;SDS011;22448;51.298;6.430;2022-08-20T12:54:59;23.60;;;9.55;;
35969;SDS011;22448;51.298;6.430;2022-08-20T12:57:31;20.27;;;9.25;;
35969;SDS011;22448;51.298;6.430;2022-08-20T13:02:38;26.40;;;9.88;;
35969;SDS011;22448;51.298;6.430;2022-08-20T13:05:07;20.88;;;9.95;;
35969;SDS011;22448;51.298;6.430;2022-08-20T13:07:35;25.27;;;9.38;;
35969;SDS011;22448;51.298;6.430;2022-08-20T13:10:03;19.80;;;8.82;;
35969;SDS011;22448;51.298;6.430;2022-08-20T13:12:32;18.73;;;9.38;;
35969;SDS011;22448;51.298;6.430;2022-08-20T13:14:59;25.20;;;10.23;;
35969;SDS011;22448;51.298;6.430;2022-08-20T13:17:26;28.65;;;9.52;;
35969;SDS011;22448;51.298;6.430;2022-08-20T13:20:12;26.65;;;9.88;;
35969;SDS011;22448;51.298;6.430;2022-08-20T13:22:41;20.10;;;8.82;;
35969;SDS011;22448;51.298;6.430;2022-08-20T13:25:08;24.08;;;12.00;;
35969;SDS011;22448;51.298;6.430;2022-08-20T13:27:38;26.10;;;10.38;;
35969;SDS011;22448;51.298;6.430;2022-08-20T13:30:07;25.45;;;10.07;;
35969;SDS011;22448;51.298;6.430;2022-08-20T13:32:37;30.00;;;11.23;;
35969;SDS011;22448;51.298;6.430;2022-08-20T13:35:04;26.55;;;10.20;;
35969;SDS011;22448;51.298;6.430;2022-08-20T13:37:31;24.25;;;11.35;;
35969;SDS011;22448;51.298;6.430;2022-08-20T13:39:59;19.58;;;9.13;;
35969;SDS011;22448;51.298;6.430;2022-08-20T13:42:26;22.15;;;8.95;;
35969;SDS011;22448;51.298;6.430;2022-08-20T13:44:53;27.83;;;10.73;;
35969;SDS011;22448;51.298;6.430;2022-08-20T13:47:25;23.33;;;10.00;;
35969;SDS011;22448;51.298;6.430;2022-08-20T13:49:55;23.35;;;10.45;;
35969;SDS011;22448;51.298;6.430;2022-08-20T13:52:24;23.33;;;9.77;;
35969;SDS011;22448;51.298;6.430;2022-08-20T13:54:52;17.45;;;9.35;;
35969;SDS011;22448;51.298;6.430;2022-08-20T13:57:21;23.15;;;9.40;;
35969;SDS011;22448;51.298;6.430;2022-08-20T13:59:51;19.83;;;8.68;;
35969;SDS011;22448;51.298;6.430;2022-08-20T14:02:20;23.48;;;9.63;;
35969;SDS011;22448;51.298;6.430;2022-08-20T14:04:48;24.63;;;8.55;;
35969;SDS011;22448;51.298;6.430;2022-08-20T14:09:59;19.67;;;8.75;;
35969;SDS011;22448;51.298;6.430;2022-08-20T14:12:31;19.80;;;8.52;;
35969;SDS011;22448;51.298;6.430;2022-08-20T14:14:59;26.40;;;10.13;;
35969;SDS011;22448;51.298;6.430;2022-08-20T14:17:30;24.15;;;9.98;;
35969;SDS011;22448;51.298;6.430;2022-08-20T14:20:13;21.95;;;8.70;;
35969;SDS011;22448;51.298;6.430;2022-08-20T14:22:43;19.52;;;8.02;;
35969;SDS011;22448;51.298;6.430;2022-08-20T14:25:11;22.35;;;7.40;;
35969;SDS011;22448;51.298;6.430;2022-08-20T14:27:40;19.58;;;7.50;;
35969;SDS011;22448;51.298;6.430;2022-08-20T14:30:12;18.48;;;7.07;;
35969;SDS011;22448;51.298;6.430;2022-08-20T14:32:42;16.60;;;6.68;;
35969;SDS011;22448;51.298;6.430;2022-08-20T14:35:09;15.48;;;6.55;;
35969;SDS011;22448;51.298;6.430;2022-08-20T14:37:38;18.17;;;6.82;;
35969;SDS011;22448;51.298;6.430;2022-08-20T14:40:11;15.23;;;6.13;;
35969;SDS011;22448;51.298;6.430;2022-08-20T14:42:41;17.90;;;6.50;;
35969;SDS011;22448;51.298;6.430;2022-08-20T14:45:13;12.85;;;6.13;;
35969;SDS011;22448;51.298;6.430;2022-08-20T14:47:42;13.00;;;5.85;;
35969;SDS011;22448;51.298;6.430;2022-08-20T14:50:20;13.65;;;5.75;;
35969;SDS011;22448;51.298;6.430;2022-08-20T14:52:53;16.70;;;5.47;;